Mongul, Pennsylvania
Current Conditions -  °F | °C
As of 7:04 AM on Friday 28 Nov 2014 (Local Time) from KRYT Reporting Station
Light Snow Light Snow  
Wind Chill: 22°   Ceiling: 2100
Heat Index: 28°   Visibility: 3mi
Dew Point: 23°   Wind: 6mph
Humidity: 80%   Direction: 330°NNW
Pressure: 30.21"   Gusts: NA
Location:  40.0414°N, 77.4967°W
Report Text: KRYT 281204Z AUTO 33005KT 3SM -SN BKN021 BKN027 BKN032 M02/M05 A3021 RMK AO2 P0000 $
Loading
Personal Weather Stations






























Interactive Weather Map New forecast layout! Learn more

10-Day Weather Forecast

Advertisements
Track Severe Weather on mobile